CEB473 RPVB-RPMD
Flight info
| Callsign | CEB473 |
|---|---|
| Flight time | N/A |
| Altitude | 31000 |
| Route | KON2C KANON TR2 CARLO B473 ANKIN ANKIN1 |
| Aircraft | A320/M-SDE3FGHIRWY/LB1 |
Departure
| Time | 2026-04-26 15:36 |
|---|---|
| Airport | Bacolod-Silay International Airport (RPVB) |
Arrival
| Time | N/A |
|---|---|
| Airport | Francisco Bangoy International Airport (RPMD) |
| Time | Latitude | Longitude | Altitude | Speed | Heading |
|---|---|---|---|---|---|
| 2026-04-26 14:26 | 10.77641 | 123.01539 | 85 ft | 0 kts | 299° |
| 2026-04-26 14:42 | 10.77641 | 123.01540 | 87 ft | 0 kts | 299° |
| 2026-04-26 15:26 | 10.77637 | 123.01547 | 85 ft | 2 kts | 294° |
| 2026-04-26 15:26 | 10.77630 | 123.01563 | 85 ft | 2 kts | 289° |
| 2026-04-26 15:27 | 10.77626 | 123.01579 | 85 ft | 2 kts | 279° |
| 2026-04-26 15:27 | 10.77625 | 123.01595 | 84 ft | 2 kts | 264° |
| 2026-04-26 15:27 | 10.77628 | 123.01612 | 83 ft | 2 kts | 245° |
| 2026-04-26 15:27 | 10.77636 | 123.01626 | 82 ft | 2 kts | 227° |
| 2026-04-26 15:28 | 10.77649 | 123.01637 | 85 ft | 2 kts | 214° |
| 2026-04-26 15:28 | 10.77656 | 123.01642 | 85 ft | 1 kts | 211° |
| 2026-04-26 15:30 | 10.77651 | 123.01639 | 85 ft | 3 kts | 211° |
| 2026-04-26 15:31 | 10.77636 | 123.01631 | 83 ft | 2 kts | 208° |
| 2026-04-26 15:31 | 10.77611 | 123.01617 | 86 ft | 5 kts | 209° |
| 2026-04-26 15:31 | 10.77571 | 123.01594 | 85 ft | 8 kts | 210° |
| 2026-04-26 15:32 | 10.77476 | 123.01537 | 85 ft | 11 kts | 210° |
| 2026-04-26 15:32 | 10.77400 | 123.01503 | 87 ft | 10 kts | 180° |
| 2026-04-26 15:32 | 10.77343 | 123.01550 | 85 ft | 13 kts | 120° |
| 2026-04-26 15:33 | 10.77306 | 123.01618 | 84 ft | 10 kts | 119° |
| 2026-04-26 15:33 | 10.77239 | 123.01654 | 84 ft | 13 kts | 190° |
| 2026-04-26 15:33 | 10.77150 | 123.01607 | 85 ft | 16 kts | 210° |
| 2026-04-26 15:33 | 10.77058 | 123.01554 | 86 ft | 11 kts | 211° |
| 2026-04-26 15:34 | 10.76995 | 123.01516 | 85 ft | 10 kts | 210° |
| 2026-04-26 15:34 | 10.76952 | 123.01478 | 86 ft | 7 kts | 244° |
| 2026-04-26 15:34 | 10.76929 | 123.01443 | 86 ft | 7 kts | 220° |
| 2026-04-26 15:34 | 10.76909 | 123.01466 | 86 ft | 5 kts | 50° |
| 2026-04-26 15:35 | 10.76921 | 123.01474 | 85 ft | 0 kts | 27° |
| 2026-04-26 15:35 | 10.77140 | 123.01603 | 85 ft | 75 kts | 28° |
| 2026-04-26 15:35 | 10.77778 | 123.01975 | 88 ft | 134 kts | 31° |
| 2026-04-26 15:35 | 10.78694 | 123.02490 | 358 ft | 157 kts | 29° |
| 2026-04-26 15:36 | 10.79669 | 123.03021 | 872 ft | 160 kts | 31° |
| 2026-04-26 15:36 | 10.80683 | 123.03546 | 1425 ft | 167 kts | 29° |
| 2026-04-26 15:36 | 10.81771 | 123.04025 | 1989 ft | 172 kts | 22° |
| 2026-04-26 15:36 | 10.82917 | 123.04338 | 2534 ft | 172 kts | 15° |
| 2026-04-26 15:37 | 10.84088 | 123.04703 | 2940 ft | 182 kts | 28° |
| 2026-04-26 15:37 | 10.85252 | 123.05315 | 3275 ft | 196 kts | 32° |
| 2026-04-26 15:37 | 10.86609 | 123.05721 | 3632 ft | 217 kts | 359° |
| 2026-04-26 15:37 | 10.88033 | 123.05095 | 4066 ft | 238 kts | 319° |
| 2026-04-26 15:38 | 10.88839 | 123.03579 | 4494 ft | 257 kts | 279° |
| 2026-04-26 15:38 | 10.88596 | 123.01774 | 5010 ft | 265 kts | 241° |
| 2026-04-26 15:38 | 10.87355 | 123.00418 | 5589 ft | 267 kts | 205° |
| 2026-04-26 15:38 | 10.85561 | 123.00006 | 6103 ft | 269 kts | 172° |
| 2026-04-26 15:39 | 10.83689 | 123.00369 | 6592 ft | 280 kts | 163° |
| 2026-04-26 15:39 | 10.81776 | 123.00844 | 6908 ft | 284 kts | 163° |
| 2026-04-26 15:39 | 10.79922 | 123.01481 | 6986 ft | 280 kts | 147° |
| 2026-04-26 15:39 | 10.79386 | 123.01818 | 6992 ft | 280 kts | 142° |
| 2026-04-26 15:40 | 10.76987 | 123.04022 | 7552 ft | 278 kts | 127° |
| 2026-04-26 15:40 | 10.75912 | 123.05651 | 8281 ft | 279 kts | 116° |
| 2026-04-26 15:40 | 10.75018 | 123.07414 | 8995 ft | 282 kts | 115° |
| 2026-04-26 15:40 | 10.74860 | 123.07730 | 9123 ft | 282 kts | 115° |
| 2026-04-26 15:41 | 10.74178 | 123.09119 | 9671 ft | 285 kts | 115° |
| 2026-04-26 15:41 | 10.73300 | 123.10938 | 10292 ft | 290 kts | 114° |
| 2026-04-26 15:41 | 10.72395 | 123.12837 | 10637 ft | 306 kts | 114° |
| 2026-04-26 15:42 | 10.71448 | 123.14837 | 10913 ft | 322 kts | 114° |
| 2026-04-26 15:42 | 10.70466 | 123.16909 | 11281 ft | 334 kts | 114° |
| 2026-04-26 15:42 | 10.69447 | 123.19054 | 11862 ft | 339 kts | 114° |
| 2026-04-26 15:42 | 10.68404 | 123.21246 | 12469 ft | 343 kts | 115° |
| 2026-04-26 15:43 | 10.67359 | 123.23442 | 13074 ft | 346 kts | 114° |
| 2026-04-26 15:43 | 10.66300 | 123.25668 | 13684 ft | 350 kts | 114° |
| 2026-04-26 15:43 | 10.64101 | 123.30117 | 14725 ft | 357 kts | 121° |
| 2026-04-26 15:44 | 10.62545 | 123.32101 | 15239 ft | 361 kts | 134° |
| 2026-04-26 15:44 | 10.58365 | 123.35023 | 16260 ft | 370 kts | 149° |
| 2026-04-26 15:44 | 10.56880 | 123.35887 | 16595 ft | 372 kts | 149° |
| 2026-04-26 15:45 | 10.52359 | 123.38525 | 17573 ft | 378 kts | 149° |
| 2026-04-26 15:45 | 10.50067 | 123.39862 | 18059 ft | 381 kts | 149° |
| 2026-04-26 15:46 | 10.45444 | 123.42562 | 18932 ft | 386 kts | 149° |
| 2026-04-26 15:46 | 10.43106 | 123.43929 | 19355 ft | 388 kts | 149° |
| 2026-04-26 15:46 | 10.40757 | 123.45302 | 19776 ft | 391 kts | 149° |
| 2026-04-26 15:46 | 10.39195 | 123.46216 | 20058 ft | 392 kts | 149° |
| 2026-04-26 15:47 | 10.36015 | 123.48077 | 20627 ft | 396 kts | 149° |
| 2026-04-26 15:47 | 10.31208 | 123.50882 | 21450 ft | 401 kts | 149° |
| 2026-04-26 15:47 | 10.28785 | 123.52297 | 21872 ft | 403 kts | 149° |
| 2026-04-26 15:48 | 10.26340 | 123.53726 | 22289 ft | 406 kts | 149° |
| 2026-04-26 15:48 | 10.23885 | 123.55163 | 22702 ft | 409 kts | 149° |
| 2026-04-26 15:48 | 10.21417 | 123.56608 | 23100 ft | 411 kts | 149° |
| 2026-04-26 15:48 | 10.18929 | 123.58063 | 23488 ft | 414 kts | 149° |
| 2026-04-26 15:49 | 10.16424 | 123.59527 | 23803 ft | 417 kts | 149° |
| 2026-04-26 15:49 | 10.13903 | 123.61000 | 24119 ft | 419 kts | 149° |
| 2026-04-26 15:49 | 10.11369 | 123.62476 | 24442 ft | 421 kts | 149° |
| 2026-04-26 15:49 | 10.08822 | 123.63962 | 24751 ft | 423 kts | 150° |
| 2026-04-26 15:50 | 10.06263 | 123.65453 | 25060 ft | 425 kts | 150° |
| 2026-04-26 15:50 | 10.03695 | 123.66950 | 25360 ft | 427 kts | 150° |
| 2026-04-26 15:50 | 10.01107 | 123.68459 | 25655 ft | 429 kts | 150° |
| 2026-04-26 15:50 | 9.98507 | 123.69973 | 25947 ft | 431 kts | 150° |
| 2026-04-26 15:51 | 9.95866 | 123.71514 | 26235 ft | 433 kts | 150° |
| 2026-04-26 15:51 | 9.93173 | 123.73086 | 26523 ft | 436 kts | 150° |
| 2026-04-26 15:51 | 9.90536 | 123.74624 | 26792 ft | 438 kts | 150° |
| 2026-04-26 15:51 | 9.87888 | 123.76167 | 27056 ft | 440 kts | 150° |
| 2026-04-26 15:52 | 9.85227 | 123.77716 | 27327 ft | 442 kts | 150° |
| 2026-04-26 15:52 | 9.82555 | 123.79269 | 27588 ft | 443 kts | 150° |
| 2026-04-26 15:52 | 9.79769 | 123.80886 | 27852 ft | 446 kts | 150° |
| 2026-04-26 15:52 | 9.77938 | 123.81949 | 28026 ft | 447 kts | 150° |
| 2026-04-26 15:53 | 9.74322 | 123.84050 | 28360 ft | 450 kts | 150° |
| 2026-04-26 15:53 | 9.71594 | 123.85639 | 28597 ft | 452 kts | 150° |
| 2026-04-26 15:53 | 9.68863 | 123.87229 | 28843 ft | 453 kts | 150° |
| 2026-04-26 15:53 | 9.66119 | 123.88824 | 29086 ft | 455 kts | 150° |
| 2026-04-26 15:54 | 9.63367 | 123.90422 | 29318 ft | 457 kts | 150° |
| 2026-04-26 15:54 | 9.60606 | 123.92024 | 29549 ft | 459 kts | 150° |
| 2026-04-26 15:54 | 9.57831 | 123.93636 | 29778 ft | 460 kts | 150° |
| 2026-04-26 15:54 | 9.55047 | 123.95254 | 29990 ft | 462 kts | 150° |
| 2026-04-26 15:55 | 9.52258 | 123.96875 | 30173 ft | 463 kts | 150° |
| 2026-04-26 15:55 | 9.49406 | 123.98390 | 30383 ft | 463 kts | 158° |
| 2026-04-26 15:55 | 9.46361 | 123.99440 | 30590 ft | 462 kts | 167° |
| 2026-04-26 15:55 | 9.43200 | 123.99977 | 30790 ft | 461 kts | 176° |
| 2026-04-26 15:56 | 9.40054 | 124.00254 | 30868 ft | 456 kts | 175° |
| 2026-04-26 15:56 | 9.36923 | 124.00539 | 30886 ft | 437 kts | 175° |
| 2026-04-26 15:56 | 9.33938 | 124.00819 | 30882 ft | 428 kts | 175° |
| 2026-04-26 15:57 | 9.28019 | 124.01377 | 30879 ft | 426 kts | 175° |
| 2026-04-26 15:57 | 9.22113 | 124.01930 | 30878 ft | 425 kts | 175° |
| 2026-04-26 15:58 | 9.16230 | 124.02480 | 30880 ft | 423 kts | 175° |
| 2026-04-26 15:58 | 9.10375 | 124.03028 | 30884 ft | 422 kts | 175° |
| 2026-04-26 15:59 | 9.04492 | 124.03574 | 30885 ft | 422 kts | 175° |
| 2026-04-26 15:59 | 8.98649 | 124.04112 | 30881 ft | 421 kts | 175° |
| 2026-04-26 16:00 | 8.92807 | 124.04650 | 30876 ft | 422 kts | 175° |
| 2026-04-26 16:00 | 8.86957 | 124.05194 | 30869 ft | 422 kts | 174° |
| 2026-04-26 16:01 | 8.81103 | 124.05738 | 30879 ft | 423 kts | 174° |
| 2026-04-26 16:01 | 8.75229 | 124.06280 | 30890 ft | 424 kts | 174° |
| 2026-04-26 16:02 | 8.69353 | 124.06820 | 30889 ft | 424 kts | 174° |
| 2026-04-26 16:02 | 8.63470 | 124.07367 | 30882 ft | 425 kts | 174° |
| 2026-04-26 16:03 | 8.57575 | 124.07916 | 30875 ft | 426 kts | 174° |
| 2026-04-26 16:03 | 8.51668 | 124.08465 | 30874 ft | 427 kts | 174° |
| 2026-04-26 16:04 | 8.45753 | 124.09008 | 30882 ft | 427 kts | 174° |
| 2026-04-26 16:04 | 8.39831 | 124.09562 | 30887 ft | 427 kts | 174° |
| 2026-04-26 16:05 | 8.33913 | 124.10108 | 30895 ft | 427 kts | 174° |
| 2026-04-26 16:05 | 8.27993 | 124.10649 | 30896 ft | 427 kts | 174° |
| 2026-04-26 16:06 | 8.22072 | 124.11204 | 30900 ft | 427 kts | 174° |
| 2026-04-26 16:06 | 8.16191 | 124.11749 | 30900 ft | 427 kts | 174° |
| 2026-04-26 16:07 | 8.10273 | 124.12291 | 30909 ft | 427 kts | 174° |
| 2026-04-26 16:07 | 8.04352 | 124.12841 | 30916 ft | 427 kts | 174° |
| 2026-04-26 16:08 | 7.98436 | 124.13390 | 30923 ft | 427 kts | 174° |
| 2026-04-26 16:08 | 7.92522 | 124.13934 | 30927 ft | 427 kts | 174° |
| 2026-04-26 16:09 | 7.86609 | 124.14475 | 30936 ft | 427 kts | 174° |
| 2026-04-26 16:09 | 7.80697 | 124.15021 | 30937 ft | 426 kts | 174° |
| 2026-04-26 16:10 | 7.74795 | 124.15570 | 30936 ft | 426 kts | 174° |
| 2026-04-26 16:10 | 7.68890 | 124.16111 | 30935 ft | 426 kts | 174° |
| 2026-04-26 16:11 | 7.62998 | 124.16648 | 30935 ft | 425 kts | 174° |
| 2026-04-26 16:11 | 7.58098 | 124.17103 | 30935 ft | 425 kts | 174° |
| 2026-04-26 16:12 | 7.52218 | 124.17648 | 30927 ft | 425 kts | 174° |
| 2026-04-26 16:12 | 7.43395 | 124.18466 | 30919 ft | 424 kts | 174° |
| 2026-04-26 16:13 | 7.37522 | 124.19002 | 30923 ft | 423 kts | 174° |
| 2026-04-26 16:13 | 7.31663 | 124.19540 | 30921 ft | 423 kts | 174° |
| 2026-04-26 16:14 | 7.25801 | 124.20082 | 30910 ft | 423 kts | 174° |
| 2026-04-26 16:15 | 7.17145 | 124.21507 | 30912 ft | 422 kts | 157° |
| 2026-04-26 16:15 | 7.12145 | 124.24639 | 30907 ft | 422 kts | 141° |
| 2026-04-26 16:16 | 7.05295 | 124.30210 | 30909 ft | 421 kts | 141° |
| 2026-04-26 16:16 | 7.00723 | 124.33902 | 30915 ft | 421 kts | 141° |
| 2026-04-26 16:17 | 6.96152 | 124.37600 | 30917 ft | 421 kts | 141° |
| 2026-04-26 16:17 | 6.91585 | 124.41300 | 30911 ft | 427 kts | 141° |
| 2026-04-26 16:18 | 6.89264 | 124.43182 | 30554 ft | 428 kts | 141° |
| 2026-04-26 16:18 | 6.84640 | 124.46934 | 29316 ft | 425 kts | 141° |
| 2026-04-26 16:19 | 6.80126 | 124.50592 | 28108 ft | 405 kts | 141° |
| 2026-04-26 16:19 | 6.77967 | 124.52336 | 27678 ft | 391 kts | 141° |
| 2026-04-26 16:19 | 6.73854 | 124.55658 | 26824 ft | 367 kts | 141° |
| 2026-04-26 16:20 | 6.71896 | 124.57244 | 26413 ft | 356 kts | 141° |
| 2026-04-26 16:20 | 6.68107 | 124.60316 | 25609 ft | 348 kts | 141° |
| 2026-04-26 16:20 | 6.66225 | 124.61836 | 25181 ft | 346 kts | 141° |
| 2026-04-26 16:21 | 6.64328 | 124.63314 | 24745 ft | 345 kts | 142° |
| 2026-04-26 16:21 | 6.62415 | 124.64758 | 24309 ft | 344 kts | 143° |
| 2026-04-26 16:21 | 6.60493 | 124.66189 | 23866 ft | 343 kts | 143° |
| 2026-04-26 16:21 | 6.58545 | 124.67645 | 23407 ft | 343 kts | 142° |
| 2026-04-26 16:22 | 6.56562 | 124.69133 | 22900 ft | 342 kts | 142° |
| 2026-04-26 16:22 | 6.54664 | 124.70564 | 22470 ft | 339 kts | 142° |
| 2026-04-26 16:22 | 6.52789 | 124.71982 | 22042 ft | 337 kts | 142° |
| 2026-04-26 16:22 | 6.50914 | 124.73407 | 21615 ft | 336 kts | 142° |
| 2026-04-26 16:23 | 6.49057 | 124.74819 | 21192 ft | 334 kts | 142° |
| 2026-04-26 16:23 | 6.47208 | 124.76222 | 20781 ft | 333 kts | 142° |
| 2026-04-26 16:23 | 6.45362 | 124.77622 | 20367 ft | 331 kts | 142° |
| 2026-04-26 16:23 | 6.43524 | 124.79015 | 19956 ft | 330 kts | 142° |
| 2026-04-26 16:24 | 6.41688 | 124.80407 | 19549 ft | 330 kts | 142° |
| 2026-04-26 16:24 | 6.39861 | 124.81794 | 19146 ft | 329 kts | 140° |
| 2026-04-26 16:24 | 6.38220 | 124.83386 | 18749 ft | 327 kts | 128° |
| 2026-04-26 16:24 | 6.36914 | 124.85213 | 18340 ft | 326 kts | 123° |
| 2026-04-26 16:25 | 6.35603 | 124.87115 | 17904 ft | 326 kts | 124° |
| 2026-04-26 16:25 | 6.34326 | 124.88954 | 17499 ft | 325 kts | 124° |
| 2026-04-26 16:25 | 6.33037 | 124.90804 | 17108 ft | 320 kts | 124° |
| 2026-04-26 16:25 | 6.31771 | 124.92621 | 16731 ft | 316 kts | 124° |
| 2026-04-26 16:26 | 6.30491 | 124.94413 | 16342 ft | 316 kts | 129° |
| 2026-04-26 16:26 | 6.29528 | 124.95550 | 16085 ft | 315 kts | 129° |
| 2026-04-26 16:26 | 6.27651 | 124.97769 | 15579 ft | 314 kts | 129° |
| 2026-04-26 16:26 | 6.26246 | 124.99444 | 15204 ft | 314 kts | 129° |
| 2026-04-26 16:27 | 6.24836 | 125.01127 | 14826 ft | 313 kts | 129° |
| 2026-04-26 16:27 | 6.23433 | 125.02800 | 14450 ft | 313 kts | 129° |
| 2026-04-26 16:27 | 6.22034 | 125.04467 | 14073 ft | 313 kts | 129° |
| 2026-04-26 16:27 | 6.20621 | 125.06149 | 13307 ft | 317 kts | 129° |
| 2026-04-26 16:28 | 6.19184 | 125.07856 | 12261 ft | 324 kts | 129° |
| 2026-04-26 16:28 | 6.17729 | 125.09583 | 11642 ft | 317 kts | 129° |
| 2026-04-26 16:28 | 6.16350 | 125.11218 | 11400 ft | 299 kts | 129° |
| 2026-04-26 16:28 | 6.15013 | 125.12809 | 11167 ft | 298 kts | 129° |
| 2026-04-26 16:29 | 6.13688 | 125.14391 | 10931 ft | 295 kts | 128° |
| 2026-04-26 16:29 | 6.12369 | 125.15967 | 10703 ft | 294 kts | 129° |
| 2026-04-26 16:29 | 6.10889 | 125.17379 | 10463 ft | 295 kts | 143° |
| 2026-04-26 16:29 | 6.09068 | 125.18331 | 10218 ft | 297 kts | 159° |
| 2026-04-26 16:30 | 6.07022 | 125.18777 | 9575 ft | 307 kts | 171° |
| 2026-04-26 16:30 | 6.04863 | 125.19032 | 8763 ft | 314 kts | 171° |
| 2026-04-26 16:30 | 6.02678 | 125.19290 | 7719 ft | 320 kts | 171° |
| 2026-04-26 16:30 | 6.00447 | 125.19555 | 6616 ft | 326 kts | 171° |
| 2026-04-26 16:31 | 5.98171 | 125.19827 | 5423 ft | 332 kts | 171° |
| 2026-04-26 16:31 | 5.95860 | 125.20106 | 4140 ft | 337 kts | 172° |
| 2026-04-26 16:31 | 5.93523 | 125.20390 | 3109 ft | 335 kts | 172° |
| 2026-04-26 16:31 | 5.91277 | 125.20627 | 2678 ft | 312 kts | 179° |
| 2026-04-26 16:32 | 5.89295 | 125.20142 | 2507 ft | 283 kts | 212° |
| 2026-04-26 16:32 | 5.88358 | 125.19314 | 2434 ft | 262 kts | 236° |
| 2026-04-26 16:32 | 5.87712 | 125.17173 | 2354 ft | 223 kts | 266° |
| 2026-04-26 16:32 | 5.87570 | 125.15709 | 2378 ft | 197 kts | 267° |
| 2026-04-26 16:33 | 5.87452 | 125.14427 | 2385 ft | 173 kts | 266° |
| 2026-04-26 16:33 | 5.87488 | 125.13275 | 2347 ft | 163 kts | 290° |
| 2026-04-26 16:33 | 5.88028 | 125.12314 | 2345 ft | 153 kts | 317° |
| 2026-04-26 16:33 | 5.88900 | 125.11723 | 2362 ft | 151 kts | 343° |
| 2026-04-26 16:34 | 5.89930 | 125.11544 | 2373 ft | 151 kts | 355° |
| 2026-04-26 16:34 | 5.90973 | 125.11425 | 2404 ft | 151 kts | 355° |
| 2026-04-26 16:34 | 5.92014 | 125.11300 | 2374 ft | 150 kts | 355° |
| 2026-04-26 16:34 | 5.93054 | 125.11174 | 2369 ft | 151 kts | 355° |
| 2026-04-26 16:35 | 5.94092 | 125.11047 | 2367 ft | 151 kts | 355° |
| 2026-04-26 16:35 | 5.95132 | 125.10921 | 2367 ft | 150 kts | 355° |
| 2026-04-26 16:35 | 5.96171 | 125.10795 | 2209 ft | 150 kts | 354° |
| 2026-04-26 16:35 | 5.97205 | 125.10669 | 2001 ft | 149 kts | 354° |
| 2026-04-26 16:36 | 5.98238 | 125.10544 | 1783 ft | 150 kts | 354° |
| 2026-04-26 16:36 | 5.99270 | 125.10419 | 1560 ft | 149 kts | 354° |
| 2026-04-26 16:36 | 6.00287 | 125.10294 | 1340 ft | 149 kts | 353° |
| 2026-04-26 16:36 | 6.01315 | 125.10172 | 1133 ft | 149 kts | 354° |
| 2026-04-26 16:37 | 6.02341 | 125.10045 | 924 ft | 148 kts | 352° |
| 2026-04-26 16:37 | 6.03359 | 125.09911 | 742 ft | 147 kts | 353° |
| 2026-04-26 16:37 | 6.04369 | 125.09787 | 580 ft | 146 kts | 352° |
| 2026-04-26 16:37 | 6.05033 | 125.09704 | 528 ft | 140 kts | 352° |
| 2026-04-26 16:38 | 6.06183 | 125.09552 | 529 ft | 124 kts | 351° |
| 2026-04-26 16:38 | 6.07113 | 125.09426 | 797 ft | 144 kts | 353° |
| 2026-04-26 16:38 | 6.08140 | 125.09321 | 1278 ft | 154 kts | 359° |
| 2026-04-26 16:38 | 6.09173 | 125.09593 | 1810 ft | 160 kts | 43° |
| 2026-04-26 16:39 | 6.09577 | 125.10600 | 2406 ft | 165 kts | 95° |
| 2026-04-26 16:39 | 6.09012 | 125.11596 | 2829 ft | 175 kts | 137° |
| 2026-04-26 16:39 | 6.08029 | 125.12417 | 3226 ft | 189 kts | 138° |
| 2026-04-26 16:39 | 6.06974 | 125.13294 | 3532 ft | 205 kts | 138° |
| 2026-04-26 16:40 | 6.05833 | 125.14241 | 3885 ft | 217 kts | 138° |
| 2026-04-26 16:40 | 6.04652 | 125.15217 | 4343 ft | 227 kts | 138° |
| 2026-04-26 16:40 | 6.03427 | 125.16264 | 4685 ft | 233 kts | 133° |
| 2026-04-26 16:40 | 6.02314 | 125.17532 | 4558 ft | 241 kts | 125° |
| 2026-04-26 16:41 | 6.01339 | 125.18857 | 4438 ft | 235 kts | 123° |
| 2026-04-26 16:41 | 6.00709 | 125.19750 | 4279 ft | 230 kts | 124° |
| 2026-04-26 16:41 | 5.99002 | 125.20957 | 3982 ft | 235 kts | 165° |
| 2026-04-26 16:41 | 5.97927 | 125.21116 | 3958 ft | 237 kts | 178° |
| 2026-04-26 16:42 | 5.95730 | 125.21074 | 3769 ft | 237 kts | 179° |
| 2026-04-26 16:42 | 5.94093 | 125.21058 | 3671 ft | 234 kts | 179° |
| 2026-04-26 16:42 | 5.92516 | 125.21046 | 3625 ft | 220 kts | 179° |
| 2026-04-26 16:42 | 5.91023 | 125.21027 | 3574 ft | 214 kts | 182° |
| 2026-04-26 16:43 | 5.90041 | 125.20819 | 3532 ft | 215 kts | 202° |
| 2026-04-26 16:43 | 5.88819 | 125.19976 | 3490 ft | 215 kts | 230° |
| 2026-04-26 16:43 | 5.88114 | 125.18716 | 3491 ft | 199 kts | 256° |
| 2026-04-26 16:43 | 5.87920 | 125.17407 | 3453 ft | 182 kts | 266° |
| 2026-04-26 16:44 | 5.87780 | 125.16199 | 3398 ft | 167 kts | 266° |
| 2026-04-26 16:44 | 5.87641 | 125.15050 | 3365 ft | 166 kts | 266° |
| 2026-04-26 16:44 | 5.87518 | 125.13915 | 3324 ft | 165 kts | 273° |
| 2026-04-26 16:44 | 5.87781 | 125.12830 | 3284 ft | 160 kts | 303° |
| 2026-04-26 16:45 | 5.88502 | 125.12010 | 3248 ft | 155 kts | 330° |
| 2026-04-26 16:45 | 5.89481 | 125.11611 | 3221 ft | 151 kts | 355° |
| 2026-04-26 16:45 | 5.90533 | 125.11494 | 3175 ft | 153 kts | 356° |
| 2026-04-26 16:45 | 5.91590 | 125.11366 | 3076 ft | 152 kts | 355° |
| 2026-04-26 16:46 | 5.92643 | 125.11236 | 2909 ft | 152 kts | 355° |
| 2026-04-26 16:46 | 5.93690 | 125.11108 | 2709 ft | 151 kts | 355° |
| 2026-04-26 16:46 | 5.94748 | 125.10976 | 2500 ft | 150 kts | 355° |
| 2026-04-26 16:46 | 5.95775 | 125.10848 | 2412 ft | 150 kts | 354° |
| 2026-04-26 16:47 | 5.96813 | 125.10720 | 2243 ft | 150 kts | 354° |
| 2026-04-26 16:47 | 5.97843 | 125.10594 | 2035 ft | 149 kts | 354° |
| 2026-04-26 16:47 | 5.98874 | 125.10470 | 1844 ft | 149 kts | 354° |
| 2026-04-26 16:47 | 5.99901 | 125.10350 | 1614 ft | 150 kts | 354° |
| 2026-04-26 16:48 | 6.00922 | 125.10215 | 1341 ft | 147 kts | 353° |
| 2026-04-26 16:48 | 6.01945 | 125.10075 | 1026 ft | 147 kts | 353° |
| 2026-04-26 16:48 | 6.02958 | 125.09964 | 753 ft | 146 kts | 354° |
| 2026-04-26 16:48 | 6.03964 | 125.09847 | 621 ft | 146 kts | 352° |
| 2026-04-26 16:49 | 6.04956 | 125.09708 | 519 ft | 137 kts | 350° |
| 2026-04-26 16:49 | 6.05749 | 125.09615 | 514 ft | 78 kts | 356° |
| 2026-04-26 16:49 | 6.06084 | 125.09581 | 515 ft | 31 kts | 353° |
| 2026-04-26 16:49 | 6.06240 | 125.09573 | 516 ft | 12 kts | 22° |
| 2026-04-26 16:50 | 6.06270 | 125.09569 | 516 ft | 1 kts | 273° |
| 2026-04-26 16:50 | 6.06254 | 125.09566 | 516 ft | 7 kts | 185° |
| 2026-04-26 16:50 | 6.06202 | 125.09570 | 516 ft | 7 kts | 175° |
| 2026-04-26 16:50 | 6.06157 | 125.09574 | 516 ft | 6 kts | 175° |
| 2026-04-26 16:51 | 6.06116 | 125.09578 | 516 ft | 7 kts | 172° |
| 2026-04-26 16:51 | 6.06054 | 125.09587 | 515 ft | 10 kts | 172° |
| 2026-04-26 16:51 | 6.05989 | 125.09596 | 515 ft | 11 kts | 172° |
| 2026-04-26 16:51 | 6.05913 | 125.09605 | 514 ft | 9 kts | 173° |
| 2026-04-26 16:52 | 6.05848 | 125.09614 | 514 ft | 6 kts | 167° |
| 2026-04-26 16:52 | 6.05824 | 125.09629 | 515 ft | 7 kts | 133° |
| 2026-04-26 16:52 | 6.05821 | 125.09701 | 514 ft | 9 kts | 81° |
| 2026-04-26 16:52 | 6.05830 | 125.09765 | 514 ft | 7 kts | 82° |
| 2026-04-26 16:53 | 6.05836 | 125.09812 | 514 ft | 3 kts | 83° |
| 2026-04-26 16:53 | 6.05839 | 125.09837 | 514 ft | 5 kts | 87° |
| 2026-04-26 16:53 | 6.05811 | 125.09867 | 514 ft | 7 kts | 162° |
| 2026-04-26 16:53 | 6.05760 | 125.09875 | 514 ft | 9 kts | 172° |
| 2026-04-26 16:54 | 6.05726 | 125.09879 | 514 ft | 0 kts | 174° |
| 2026-04-26 16:54 | 6.05714 | 125.09881 | 514 ft | 2 kts | 164° |
| 2026-04-26 16:54 | 6.05708 | 125.09893 | 514 ft | 3 kts | 106° |
| 2026-04-26 16:54 | 6.05711 | 125.09926 | 514 ft | 5 kts | 81° |
| 2026-04-26 16:55 | 6.05714 | 125.09953 | 514 ft | 2 kts | 82° |
| 2026-04-26 16:55 | 6.05715 | 125.09955 | 514 ft | 0 kts | 82° |